< < Back
Terminal Aerodrome Forecast


Current Version              Previous Versions:   1  2  3  4  5  6  7  8  9  

Terminal Aerodrome Forecast

197
FTUS44 KBMX 210600 RRA
TAFTCL
TAF
KTCL 210658Z 2107/2206 00000KT P6SM SCT250
     FM211500 26007KT P6SM SCT040=

Latest METAR

677
SAUS70 KWBC 210800 RRG
MTRTCL
METAR KTCL 210753Z AUTO 00000KT 10SM CLR 19/18 A3002 RMK AO2 SLP161
T01890178


USA.gov is the U.S. government's official web portal to all federal, state and local government web resources and services.